sensor_id;sensor_type;location;lat;lon;timestamp;P1;durP1;ratioP1;P2;durP2;ratioP2
17340;SDS011;8788;49.930;8.660;2023-03-19T00:02:05;6.13;;;1.92;;
17340;SDS011;8788;49.930;8.660;2023-03-19T00:04:33;2.65;;;1.27;;
17340;SDS011;8788;49.930;8.660;2023-03-19T00:07:00;4.80;;;1.50;;
17340;SDS011;8788;49.930;8.660;2023-03-19T00:09:27;4.10;;;2.25;;
17340;SDS011;8788;49.930;8.660;2023-03-19T00:11:56;1.60;;;1.50;;
17340;SDS011;8788;49.930;8.660;2023-03-19T00:14:23;3.45;;;1.63;;
17340;SDS011;8788;49.930;8.660;2023-03-19T00:16:50;4.03;;;2.20;;
17340;SDS011;8788;49.930;8.660;2023-03-19T00:19:17;3.50;;;1.70;;
17340;SDS011;8788;49.930;8.660;2023-03-19T00:21:44;3.97;;;1.90;;
17340;SDS011;8788;49.930;8.660;2023-03-19T00:24:12;2.75;;;1.50;;
17340;SDS011;8788;49.930;8.660;2023-03-19T00:26:41;4.60;;;1.70;;
17340;SDS011;8788;49.930;8.660;2023-03-19T00:29:10;2.80;;;1.85;;
17340;SDS011;8788;49.930;8.660;2023-03-19T00:31:39;5.13;;;1.63;;
17340;SDS011;8788;49.930;8.660;2023-03-19T00:34:07;2.67;;;1.77;;
17340;SDS011;8788;49.930;8.660;2023-03-19T00:36:34;4.47;;;2.15;;
17340;SDS011;8788;49.930;8.660;2023-03-19T00:39:02;3.80;;;1.92;;
17340;SDS011;8788;49.930;8.660;2023-03-19T00:41:30;2.38;;;1.85;;
17340;SDS011;8788;49.930;8.660;2023-03-19T00:43:57;2.67;;;1.98;;
17340;SDS011;8788;49.930;8.660;2023-03-19T00:46:29;6.13;;;1.85;;
17340;SDS011;8788;49.930;8.660;2023-03-19T00:48:56;5.72;;;1.77;;
17340;SDS011;8788;49.930;8.660;2023-03-19T00:51:24;3.45;;;1.77;;
17340;SDS011;8788;49.930;8.660;2023-03-19T00:53:51;1.80;;;1.42;;
17340;SDS011;8788;49.930;8.660;2023-03-19T00:56:19;4.38;;;1.42;;
17340;SDS011;8788;49.930;8.660;2023-03-19T00:58:46;2.20;;;1.60;;
17340;SDS011;8788;49.930;8.660;2023-03-19T01:01:14;3.20;;;1.70;;
17340;SDS011;8788;49.930;8.660;2023-03-19T01:03:43;2.45;;;1.65;;
17340;SDS011;8788;49.930;8.660;2023-03-19T01:06:11;4.30;;;1.73;;
17340;SDS011;8788;49.930;8.660;2023-03-19T01:08:39;4.90;;;2.00;;
17340;SDS011;8788;49.930;8.660;2023-03-19T01:11:07;3.88;;;1.98;;
17340;SDS011;8788;49.930;8.660;2023-03-19T01:13:36;4.88;;;1.50;;
17340;SDS011;8788;49.930;8.660;2023-03-19T01:16:03;3.10;;;2.10;;
17340;SDS011;8788;49.930;8.660;2023-03-19T01:18:30;2.53;;;1.80;;
17340;SDS011;8788;49.930;8.660;2023-03-19T01:20:59;6.72;;;1.58;;
17340;SDS011;8788;49.930;8.660;2023-03-19T01:23:27;4.70;;;2.05;;
17340;SDS011;8788;49.930;8.660;2023-03-19T01:25:55;2.90;;;1.95;;
17340;SDS011;8788;49.930;8.660;2023-03-19T01:28:25;4.88;;;2.22;;
17340;SDS011;8788;49.930;8.660;2023-03-19T01:30:52;4.93;;;1.50;;
17340;SDS011;8788;49.930;8.660;2023-03-19T01:33:43;7.38;;;2.10;;
17340;SDS011;8788;49.930;8.660;2023-03-19T01:36:21;5.47;;;2.00;;
17340;SDS011;8788;49.930;8.660;2023-03-19T01:39:07;5.28;;;1.83;;
17340;SDS011;8788;49.930;8.660;2023-03-19T01:41:35;3.63;;;1.63;;
17340;SDS011;8788;49.930;8.660;2023-03-19T01:44:22;3.45;;;1.90;;
17340;SDS011;8788;49.930;8.660;2023-03-19T01:47:13;4.95;;;1.95;;
17340;SDS011;8788;49.930;8.660;2023-03-19T01:50:01;4.32;;;2.15;;
17340;SDS011;8788;49.930;8.660;2023-03-19T01:52:31;3.30;;;1.70;;
17340;SDS011;8788;49.930;8.660;2023-03-19T01:55:12;6.22;;;1.83;;
17340;SDS011;8788;49.930;8.660;2023-03-19T01:57:50;3.45;;;2.50;;
17340;SDS011;8788;49.930;8.660;2023-03-19T02:00:31;3.50;;;2.17;;
17340;SDS011;8788;49.930;8.660;2023-03-19T02:03:01;3.63;;;1.90;;
17340;SDS011;8788;49.930;8.660;2023-03-19T02:05:47;2.70;;;2.10;;
17340;SDS011;8788;49.930;8.660;2023-03-19T02:08:18;2.85;;;2.10;;
17340;SDS011;8788;49.930;8.660;2023-03-19T02:10:47;11.23;;;2.95;;
17340;SDS011;8788;49.930;8.660;2023-03-19T02:13:15;4.07;;;2.03;;
17340;SDS011;8788;49.930;8.660;2023-03-19T02:15:42;5.40;;;2.22;;
17340;SDS011;8788;49.930;8.660;2023-03-19T02:18:09;3.20;;;2.20;;
17340;SDS011;8788;49.930;8.660;2023-03-19T02:20:40;5.18;;;2.03;;
17340;SDS011;8788;49.930;8.660;2023-03-19T02:23:14;3.50;;;2.13;;
17340;SDS011;8788;49.930;8.660;2023-03-19T02:26:00;6.80;;;1.85;;
17340;SDS011;8788;49.930;8.660;2023-03-19T02:28:31;4.20;;;1.95;;
17340;SDS011;8788;49.930;8.660;2023-03-19T02:31:01;5.50;;;2.03;;
17340;SDS011;8788;49.930;8.660;2023-03-19T02:33:29;3.72;;;1.80;;
17340;SDS011;8788;49.930;8.660;2023-03-19T02:35:56;4.85;;;1.95;;
17340;SDS011;8788;49.930;8.660;2023-03-19T02:38:24;3.70;;;1.55;;
17340;SDS011;8788;49.930;8.660;2023-03-19T02:40:54;2.72;;;1.70;;
17340;SDS011;8788;49.930;8.660;2023-03-19T02:43:27;5.63;;;1.85;;
17340;SDS011;8788;49.930;8.660;2023-03-19T02:45:54;2.83;;;1.58;;
17340;SDS011;8788;49.930;8.660;2023-03-19T02:48:21;2.05;;;1.67;;
17340;SDS011;8788;49.930;8.660;2023-03-19T02:50:49;4.20;;;1.50;;
17340;SDS011;8788;49.930;8.660;2023-03-19T02:53:16;3.03;;;1.60;;
17340;SDS011;8788;49.930;8.660;2023-03-19T02:55:43;3.58;;;1.27;;
17340;SDS011;8788;49.930;8.660;2023-03-19T02:58:10;3.83;;;1.40;;
17340;SDS011;8788;49.930;8.660;2023-03-19T03:00:39;2.08;;;1.50;;
17340;SDS011;8788;49.930;8.660;2023-03-19T03:03:07;2.13;;;1.27;;
17340;SDS011;8788;49.930;8.660;2023-03-19T03:05:34;9.02;;;1.95;;
17340;SDS011;8788;49.930;8.660;2023-03-19T03:08:02;6.60;;;1.98;;
17340;SDS011;8788;49.930;8.660;2023-03-19T03:10:29;3.03;;;1.10;;
17340;SDS011;8788;49.930;8.660;2023-03-19T03:12:57;4.82;;;1.83;;
17340;SDS011;8788;49.930;8.660;2023-03-19T03:15:25;5.00;;;2.30;;
17340;SDS011;8788;49.930;8.660;2023-03-19T03:17:54;4.15;;;2.50;;
17340;SDS011;8788;49.930;8.660;2023-03-19T03:20:21;2.58;;;2.00;;
17340;SDS011;8788;49.930;8.660;2023-03-19T03:22:49;3.88;;;1.90;;
17340;SDS011;8788;49.930;8.660;2023-03-19T03:25:16;4.30;;;1.85;;
17340;SDS011;8788;49.930;8.660;2023-03-19T03:27:43;3.30;;;1.83;;
17340;SDS011;8788;49.930;8.660;2023-03-19T03:30:11;6.25;;;2.15;;
17340;SDS011;8788;49.930;8.660;2023-03-19T03:32:40;1.80;;;1.63;;
17340;SDS011;8788;49.930;8.660;2023-03-19T03:35:09;3.17;;;1.92;;
17340;SDS011;8788;49.930;8.660;2023-03-19T03:37:36;2.35;;;1.55;;
17340;SDS011;8788;49.930;8.660;2023-03-19T03:40:04;5.60;;;1.98;;
17340;SDS011;8788;49.930;8.660;2023-03-19T03:42:33;6.80;;;2.03;;
17340;SDS011;8788;49.930;8.660;2023-03-19T03:45:03;4.55;;;2.20;;
17340;SDS011;8788;49.930;8.660;2023-03-19T03:47:31;4.90;;;2.33;;
17340;SDS011;8788;49.930;8.660;2023-03-19T03:49:58;2.38;;;1.98;;
17340;SDS011;8788;49.930;8.660;2023-03-19T03:52:26;4.00;;;2.30;;
17340;SDS011;8788;49.930;8.660;2023-03-19T03:54:56;4.30;;;2.40;;
17340;SDS011;8788;49.930;8.660;2023-03-19T03:57:23;4.47;;;2.33;;
17340;SDS011;8788;49.930;8.660;2023-03-19T03:59:52;4.80;;;2.47;;
17340;SDS011;8788;49.930;8.660;2023-03-19T04:02:20;5.22;;;2.20;;
17340;SDS011;8788;49.930;8.660;2023-03-19T04:04:48;4.40;;;2.30;;
17340;SDS011;8788;49.930;8.660;2023-03-19T04:07:15;5.13;;;2.42;;
17340;SDS011;8788;49.930;8.660;2023-03-19T04:09:46;3.42;;;2.65;;
17340;SDS011;8788;49.930;8.660;2023-03-19T04:12:15;5.13;;;2.53;;
17340;SDS011;8788;49.930;8.660;2023-03-19T04:14:42;6.80;;;2.60;;
17340;SDS011;8788;49.930;8.660;2023-03-19T04:17:10;4.30;;;2.40;;
17340;SDS011;8788;49.930;8.660;2023-03-19T04:19:37;2.63;;;2.00;;
17340;SDS011;8788;49.930;8.660;2023-03-19T04:22:05;4.72;;;2.47;;
17340;SDS011;8788;49.930;8.660;2023-03-19T04:24:33;7.75;;;2.47;;
17340;SDS011;8788;49.930;8.660;2023-03-19T04:27:02;4.25;;;2.42;;
17340;SDS011;8788;49.930;8.660;2023-03-19T04:29:30;7.00;;;2.65;;
17340;SDS011;8788;49.930;8.660;2023-03-19T04:31:58;3.83;;;2.90;;
17340;SDS011;8788;49.930;8.660;2023-03-19T04:34:25;6.25;;;2.80;;
17340;SDS011;8788;49.930;8.660;2023-03-19T04:36:52;4.15;;;2.65;;
17340;SDS011;8788;49.930;8.660;2023-03-19T04:39:19;4.20;;;2.72;;
17340;SDS011;8788;49.930;8.660;2023-03-19T04:41:46;2.50;;;2.25;;
17340;SDS011;8788;49.930;8.660;2023-03-19T04:44:28;3.97;;;2.50;;
17340;SDS011;8788;49.930;8.660;2023-03-19T04:46:58;4.28;;;2.22;;
17340;SDS011;8788;49.930;8.660;2023-03-19T04:49:28;3.78;;;2.72;;
17340;SDS011;8788;49.930;8.660;2023-03-19T04:51:56;3.08;;;2.38;;
17340;SDS011;8788;49.930;8.660;2023-03-19T04:54:24;4.63;;;2.35;;
17340;SDS011;8788;49.930;8.660;2023-03-19T04:56:51;9.55;;;3.15;;
17340;SDS011;8788;49.930;8.660;2023-03-19T04:59:21;5.32;;;2.78;;
17340;SDS011;8788;49.930;8.660;2023-03-19T05:01:56;3.40;;;2.63;;
17340;SDS011;8788;49.930;8.660;2023-03-19T05:04:33;5.53;;;2.85;;
17340;SDS011;8788;49.930;8.660;2023-03-19T05:07:05;2.97;;;2.60;;
17340;SDS011;8788;49.930;8.660;2023-03-19T05:09:34;4.05;;;2.58;;
17340;SDS011;8788;49.930;8.660;2023-03-19T05:12:01;4.68;;;2.35;;
17340;SDS011;8788;49.930;8.660;2023-03-19T05:14:35;3.72;;;2.20;;
17340;SDS011;8788;49.930;8.660;2023-03-19T05:17:11;4.43;;;2.25;;
17340;SDS011;8788;49.930;8.660;2023-03-19T05:19:58;3.55;;;3.00;;
17340;SDS011;8788;49.930;8.660;2023-03-19T05:22:25;4.68;;;2.42;;
17340;SDS011;8788;49.930;8.660;2023-03-19T05:24:54;4.60;;;2.45;;
17340;SDS011;8788;49.930;8.660;2023-03-19T05:27:22;6.40;;;2.45;;
17340;SDS011;8788;49.930;8.660;2023-03-19T05:29:59;5.13;;;2.00;;
17340;SDS011;8788;49.930;8.660;2023-03-19T05:32:51;4.20;;;2.50;;
17340;SDS011;8788;49.930;8.660;2023-03-19T05:35:38;2.80;;;1.95;;
17340;SDS011;8788;49.930;8.660;2023-03-19T05:38:19;5.18;;;2.42;;
17340;SDS011;8788;49.930;8.660;2023-03-19T05:40:53;4.38;;;2.25;;
17340;SDS011;8788;49.930;8.660;2023-03-19T05:43:30;4.30;;;2.03;;
17340;SDS011;8788;49.930;8.660;2023-03-19T05:46:01;4.43;;;2.63;;
17340;SDS011;8788;49.930;8.660;2023-03-19T05:48:32;5.75;;;2.10;;
17340;SDS011;8788;49.930;8.660;2023-03-19T05:51:01;3.10;;;2.50;;
17340;SDS011;8788;49.930;8.660;2023-03-19T05:53:33;4.78;;;2.42;;
17340;SDS011;8788;49.930;8.660;2023-03-19T05:56:23;6.63;;;2.60;;
17340;SDS011;8788;49.930;8.660;2023-03-19T05:59:06;5.00;;;2.20;;
17340;SDS011;8788;49.930;8.660;2023-03-19T06:01:38;5.55;;;2.13;;
17340;SDS011;8788;49.930;8.660;2023-03-19T06:04:06;3.85;;;2.40;;
17340;SDS011;8788;49.930;8.660;2023-03-19T06:06:33;5.53;;;3.00;;
17340;SDS011;8788;49.930;8.660;2023-03-19T06:09:01;3.03;;;2.30;;
17340;SDS011;8788;49.930;8.660;2023-03-19T06:11:40;8.43;;;3.00;;
17340;SDS011;8788;49.930;8.660;2023-03-19T06:14:26;4.22;;;2.80;;
17340;SDS011;8788;49.930;8.660;2023-03-19T06:17:13;4.65;;;2.60;;
17340;SDS011;8788;49.930;8.660;2023-03-19T06:19:42;7.18;;;2.67;;
17340;SDS011;8788;49.930;8.660;2023-03-19T06:22:09;6.47;;;2.35;;
17340;SDS011;8788;49.930;8.660;2023-03-19T06:24:36;4.72;;;3.28;;
17340;SDS011;8788;49.930;8.660;2023-03-19T06:27:04;4.13;;;2.90;;
17340;SDS011;8788;49.930;8.660;2023-03-19T06:29:31;5.07;;;2.92;;
17340;SDS011;8788;49.930;8.660;2023-03-19T06:32:11;4.45;;;2.78;;
17340;SDS011;8788;49.930;8.660;2023-03-19T06:34:42;4.93;;;2.70;;
17340;SDS011;8788;49.930;8.660;2023-03-19T06:37:09;7.30;;;2.70;;
17340;SDS011;8788;49.930;8.660;2023-03-19T06:39:36;5.40;;;2.97;;
17340;SDS011;8788;49.930;8.660;2023-03-19T06:42:04;6.13;;;3.22;;
17340;SDS011;8788;49.930;8.660;2023-03-19T06:44:32;6.22;;;3.25;;
17340;SDS011;8788;49.930;8.660;2023-03-19T06:46:59;7.88;;;3.50;;
17340;SDS011;8788;49.930;8.660;2023-03-19T06:49:26;9.45;;;4.57;;
17340;SDS011;8788;49.930;8.660;2023-03-19T06:51:54;8.57;;;4.22;;
17340;SDS011;8788;49.930;8.660;2023-03-19T06:54:22;13.73;;;5.68;;
17340;SDS011;8788;49.930;8.660;2023-03-19T06:56:49;12.07;;;5.85;;
17340;SDS011;8788;49.930;8.660;2023-03-19T06:59:16;13.07;;;5.63;;
17340;SDS011;8788;49.930;8.660;2023-03-19T07:01:43;9.40;;;4.40;;
17340;SDS011;8788;49.930;8.660;2023-03-19T07:04:11;11.85;;;5.38;;
17340;SDS011;8788;49.930;8.660;2023-03-19T07:06:38;10.82;;;4.78;;
17340;SDS011;8788;49.930;8.660;2023-03-19T07:09:06;8.68;;;4.93;;
17340;SDS011;8788;49.930;8.660;2023-03-19T07:11:34;12.32;;;4.60;;
17340;SDS011;8788;49.930;8.660;2023-03-19T07:14:01;8.00;;;4.00;;
17340;SDS011;8788;49.930;8.660;2023-03-19T07:16:28;11.60;;;4.70;;
17340;SDS011;8788;49.930;8.660;2023-03-19T07:18:55;13.05;;;4.53;;
17340;SDS011;8788;49.930;8.660;2023-03-19T07:21:23;8.48;;;4.78;;
17340;SDS011;8788;49.930;8.660;2023-03-19T07:23:50;9.43;;;4.35;;
17340;SDS011;8788;49.930;8.660;2023-03-19T07:26:18;7.07;;;3.58;;
17340;SDS011;8788;49.930;8.660;2023-03-19T07:28:45;9.50;;;3.85;;
17340;SDS011;8788;49.930;8.660;2023-03-19T07:31:12;7.57;;;2.75;;
17340;SDS011;8788;49.930;8.660;2023-03-19T07:33:41;6.82;;;2.72;;
17340;SDS011;8788;49.930;8.660;2023-03-19T07:36:08;4.30;;;3.28;;
17340;SDS011;8788;49.930;8.660;2023-03-19T07:38:35;5.32;;;2.85;;
17340;SDS011;8788;49.930;8.660;2023-03-19T07:41:02;6.28;;;3.10;;
17340;SDS011;8788;49.930;8.660;2023-03-19T07:43:31;5.88;;;3.03;;
17340;SDS011;8788;49.930;8.660;2023-03-19T07:45:58;6.40;;;3.00;;
17340;SDS011;8788;49.930;8.660;2023-03-19T07:48:25;9.60;;;3.05;;
17340;SDS011;8788;49.930;8.660;2023-03-19T07:50:52;5.53;;;2.80;;
17340;SDS011;8788;49.930;8.660;2023-03-19T07:53:19;4.20;;;2.30;;
17340;SDS011;8788;49.930;8.660;2023-03-19T07:55:46;5.00;;;2.35;;
17340;SDS011;8788;49.930;8.660;2023-03-19T07:58:14;3.00;;;2.20;;
17340;SDS011;8788;49.930;8.660;2023-03-19T08:00:42;4.28;;;2.47;;
17340;SDS011;8788;49.930;8.660;2023-03-19T08:03:10;4.18;;;2.58;;
17340;SDS011;8788;49.930;8.660;2023-03-19T08:05:37;2.85;;;2.13;;
17340;SDS011;8788;49.930;8.660;2023-03-19T08:08:05;4.03;;;2.70;;
17340;SDS011;8788;49.930;8.660;2023-03-19T08:10:32;4.05;;;2.10;;
17340;SDS011;8788;49.930;8.660;2023-03-19T08:12:59;4.32;;;2.20;;
17340;SDS011;8788;49.930;8.660;2023-03-19T08:15:26;5.50;;;2.85;;
17340;SDS011;8788;49.930;8.660;2023-03-19T08:17:58;2.95;;;1.98;;
17340;SDS011;8788;49.930;8.660;2023-03-19T08:20:25;2.80;;;2.30;;
17340;SDS011;8788;49.930;8.660;2023-03-19T08:22:52;3.65;;;2.45;;
17340;SDS011;8788;49.930;8.660;2023-03-19T08:25:20;6.07;;;2.65;;
17340;SDS011;8788;49.930;8.660;2023-03-19T08:27:47;4.65;;;2.83;;
17340;SDS011;8788;49.930;8.660;2023-03-19T08:30:15;3.58;;;2.30;;
17340;SDS011;8788;49.930;8.660;2023-03-19T08:32:42;2.42;;;2.08;;
17340;SDS011;8788;49.930;8.660;2023-03-19T08:35:11;3.78;;;2.42;;
17340;SDS011;8788;49.930;8.660;2023-03-19T08:37:39;4.22;;;2.30;;
17340;SDS011;8788;49.930;8.660;2023-03-19T08:40:07;5.03;;;2.28;;
17340;SDS011;8788;49.930;8.660;2023-03-19T08:42:35;4.22;;;2.45;;
17340;SDS011;8788;49.930;8.660;2023-03-19T08:45:06;5.18;;;2.25;;
17340;SDS011;8788;49.930;8.660;2023-03-19T08:47:34;2.83;;;2.08;;
17340;SDS011;8788;49.930;8.660;2023-03-19T08:50:01;5.32;;;2.90;;
17340;SDS011;8788;49.930;8.660;2023-03-19T08:52:30;2.33;;;1.85;;
17340;SDS011;8788;49.930;8.660;2023-03-19T08:54:57;3.50;;;2.78;;
17340;SDS011;8788;49.930;8.660;2023-03-19T08:57:24;3.00;;;2.60;;
17340;SDS011;8788;49.930;8.660;2023-03-19T08:59:51;3.42;;;2.13;;
17340;SDS011;8788;49.930;8.660;2023-03-19T09:02:18;3.17;;;1.88;;
17340;SDS011;8788;49.930;8.660;2023-03-19T09:04:45;3.58;;;2.15;;
17340;SDS011;8788;49.930;8.660;2023-03-19T09:07:12;2.42;;;2.03;;
17340;SDS011;8788;49.930;8.660;2023-03-19T09:09:42;5.88;;;2.50;;
17340;SDS011;8788;49.930;8.660;2023-03-19T09:12:10;2.40;;;2.00;;
17340;SDS011;8788;49.930;8.660;2023-03-19T09:14:39;2.65;;;1.90;;
17340;SDS011;8788;49.930;8.660;2023-03-19T09:17:06;6.00;;;2.00;;
17340;SDS011;8788;49.930;8.660;2023-03-19T09:19:34;2.38;;;1.70;;
17340;SDS011;8788;49.930;8.660;2023-03-19T09:22:02;2.90;;;1.73;;
17340;SDS011;8788;49.930;8.660;2023-03-19T09:24:29;2.97;;;1.88;;
17340;SDS011;8788;49.930;8.660;2023-03-19T09:26:58;5.25;;;2.00;;
17340;SDS011;8788;49.930;8.660;2023-03-19T09:29:25;3.13;;;1.58;;
17340;SDS011;8788;49.930;8.660;2023-03-19T09:31:52;5.53;;;2.03;;
17340;SDS011;8788;49.930;8.660;2023-03-19T09:34:19;1.90;;;1.60;;
17340;SDS011;8788;49.930;8.660;2023-03-19T09:36:46;3.25;;;1.63;;
17340;SDS011;8788;49.930;8.660;2023-03-19T09:39:13;5.35;;;2.10;;
17340;SDS011;8788;49.930;8.660;2023-03-19T09:41:44;2.55;;;2.05;;
17340;SDS011;8788;49.930;8.660;2023-03-19T09:44:27;2.13;;;1.90;;
17340;SDS011;8788;49.930;8.660;2023-03-19T09:46:56;2.05;;;1.67;;
17340;SDS011;8788;49.930;8.660;2023-03-19T09:49:29;3.58;;;1.98;;
17340;SDS011;8788;49.930;8.660;2023-03-19T09:52:04;2.55;;;1.60;;
17340;SDS011;8788;49.930;8.660;2023-03-19T09:54:41;4.10;;;1.60;;
17340;SDS011;8788;49.930;8.660;2023-03-19T09:57:12;2.08;;;1.55;;
17340;SDS011;8788;49.930;8.660;2023-03-19T09:59:43;3.72;;;1.75;;
17340;SDS011;8788;49.930;8.660;2023-03-19T10:02:23;3.45;;;1.65;;
17340;SDS011;8788;49.930;8.660;2023-03-19T10:05:07;3.72;;;2.25;;
17340;SDS011;8788;49.930;8.660;2023-03-19T10:07:48;5.22;;;2.08;;
17340;SDS011;8788;49.930;8.660;2023-03-19T10:10:43;4.10;;;1.80;;
17340;SDS011;8788;49.930;8.660;2023-03-19T10:13:17;3.50;;;2.20;;
17340;SDS011;8788;49.930;8.660;2023-03-19T10:15:56;4.90;;;2.03;;
17340;SDS011;8788;49.930;8.660;2023-03-19T10:18:26;3.15;;;1.77;;
17340;SDS011;8788;49.930;8.660;2023-03-19T10:20:57;2.33;;;1.80;;
17340;SDS011;8788;49.930;8.660;2023-03-19T10:23:31;4.57;;;2.13;;
17340;SDS011;8788;49.930;8.660;2023-03-19T10:26:10;5.57;;;2.42;;
17340;SDS011;8788;49.930;8.660;2023-03-19T10:28:40;3.83;;;2.40;;
17340;SDS011;8788;49.930;8.660;2023-03-19T10:31:19;3.72;;;2.25;;
17340;SDS011;8788;49.930;8.660;2023-03-19T10:33:56;2.92;;;2.13;;
17340;SDS011;8788;49.930;8.660;2023-03-19T10:36:33;5.93;;;2.03;;
17340;SDS011;8788;49.930;8.660;2023-03-19T10:39:01;5.35;;;2.47;;
17340;SDS011;8788;49.930;8.660;2023-03-19T10:41:34;5.13;;;2.47;;
17340;SDS011;8788;49.930;8.660;2023-03-19T10:44:11;3.92;;;1.83;;
17340;SDS011;8788;49.930;8.660;2023-03-19T10:46:48;3.47;;;1.80;;
17340;SDS011;8788;49.930;8.660;2023-03-19T10:49:15;4.28;;;2.13;;
17340;SDS011;8788;49.930;8.660;2023-03-19T10:51:42;4.63;;;2.10;;
17340;SDS011;8788;49.930;8.660;2023-03-19T10:54:16;3.63;;;2.70;;
17340;SDS011;8788;49.930;8.660;2023-03-19T10:56:47;3.63;;;2.20;;
17340;SDS011;8788;49.930;8.660;2023-03-19T10:59:22;3.30;;;1.83;;
17340;SDS011;8788;49.930;8.660;2023-03-19T11:01:56;3.42;;;2.40;;
17340;SDS011;8788;49.930;8.660;2023-03-19T11:04:25;4.90;;;2.47;;
17340;SDS011;8788;49.930;8.660;2023-03-19T11:06:54;2.83;;;2.53;;
17340;SDS011;8788;49.930;8.660;2023-03-19T11:09:23;7.32;;;2.60;;
17340;SDS011;8788;49.930;8.660;2023-03-19T11:11:57;4.53;;;2.55;;
17340;SDS011;8788;49.930;8.660;2023-03-19T11:14:32;5.43;;;2.40;;
17340;SDS011;8788;49.930;8.660;2023-03-19T11:17:04;3.58;;;2.22;;
17340;SDS011;8788;49.930;8.660;2023-03-19T11:19:41;3.35;;;1.95;;
17340;SDS011;8788;49.930;8.660;2023-03-19T11:22:16;4.00;;;2.50;;
17340;SDS011;8788;49.930;8.660;2023-03-19T11:24:49;4.03;;;2.20;;
17340;SDS011;8788;49.930;8.660;2023-03-19T11:27:18;4.70;;;2.58;;
17340;SDS011;8788;49.930;8.660;2023-03-19T11:29:54;4.32;;;2.40;;
17340;SDS011;8788;49.930;8.660;2023-03-19T11:32:29;3.75;;;2.30;;
17340;SDS011;8788;49.930;8.660;2023-03-19T11:35:12;3.70;;;2.88;;
17340;SDS011;8788;49.930;8.660;2023-03-19T11:37:48;2.53;;;2.33;;
17340;SDS011;8788;49.930;8.660;2023-03-19T11:40:20;3.05;;;2.20;;
17340;SDS011;8788;49.930;8.660;2023-03-19T11:43:02;2.80;;;2.30;;
17340;SDS011;8788;49.930;8.660;2023-03-19T11:45:44;3.38;;;1.98;;
17340;SDS011;8788;49.930;8.660;2023-03-19T11:48:24;3.08;;;1.85;;
17340;SDS011;8788;49.930;8.660;2023-03-19T11:51:02;3.53;;;2.42;;
17340;SDS011;8788;49.930;8.660;2023-03-19T11:53:35;4.28;;;2.30;;
17340;SDS011;8788;49.930;8.660;2023-03-19T11:56:09;5.25;;;2.40;;
17340;SDS011;8788;49.930;8.660;2023-03-19T11:58:56;4.43;;;2.78;;
17340;SDS011;8788;49.930;8.660;2023-03-19T12:01:43;2.58;;;2.20;;
17340;SDS011;8788;49.930;8.660;2023-03-19T12:07:43;3.47;;;2.03;;
17340;SDS011;8788;49.930;8.660;2023-03-19T12:10:27;4.97;;;2.70;;
17340;SDS011;8788;49.930;8.660;2023-03-19T12:13:04;6.15;;;2.58;;
17340;SDS011;8788;49.930;8.660;2023-03-19T12:15:42;3.10;;;2.78;;
17340;SDS011;8788;49.930;8.660;2023-03-19T12:18:21;5.10;;;2.53;;
17340;SDS011;8788;49.930;8.660;2023-03-19T12:21:03;4.13;;;2.30;;
17340;SDS011;8788;49.930;8.660;2023-03-19T12:23:40;4.70;;;2.83;;
17340;SDS011;8788;49.930;8.660;2023-03-19T12:26:20;6.88;;;2.70;;
17340;SDS011;8788;49.930;8.660;2023-03-19T12:28:57;2.67;;;2.15;;
17340;SDS011;8788;49.930;8.660;2023-03-19T12:31:34;3.25;;;2.45;;
17340;SDS011;8788;49.930;8.660;2023-03-19T12:34:23;2.35;;;2.17;;
17340;SDS011;8788;49.930;8.660;2023-03-19T12:36:59;2.40;;;2.10;;
17340;SDS011;8788;49.930;8.660;2023-03-19T12:39:35;3.72;;;2.20;;
17340;SDS011;8788;49.930;8.660;2023-03-19T12:42:05;3.50;;;1.98;;
17340;SDS011;8788;49.930;8.660;2023-03-19T12:44:39;4.13;;;2.58;;
17340;SDS011;8788;49.930;8.660;2023-03-19T12:47:09;5.38;;;2.47;;
17340;SDS011;8788;49.930;8.660;2023-03-19T12:49:41;2.72;;;2.05;;
17340;SDS011;8788;49.930;8.660;2023-03-19T12:52:18;2.15;;;1.95;;
17340;SDS011;8788;49.930;8.660;2023-03-19T12:54:49;3.05;;;2.45;;
17340;SDS011;8788;49.930;8.660;2023-03-19T12:57:26;4.93;;;2.60;;
17340;SDS011;8788;49.930;8.660;2023-03-19T13:00:02;3.78;;;2.60;;
17340;SDS011;8788;49.930;8.660;2023-03-19T13:02:33;2.90;;;2.63;;
17340;SDS011;8788;49.930;8.660;2023-03-19T13:05:05;4.50;;;2.13;;
17340;SDS011;8788;49.930;8.660;2023-03-19T13:07:49;3.30;;;2.67;;
17340;SDS011;8788;49.930;8.660;2023-03-19T13:10:22;3.38;;;2.75;;
17340;SDS011;8788;49.930;8.660;2023-03-19T13:12:50;4.97;;;2.83;;
17340;SDS011;8788;49.930;8.660;2023-03-19T13:15:21;8.15;;;2.90;;
17340;SDS011;8788;49.930;8.660;2023-03-19T13:17:58;3.90;;;2.55;;
17340;SDS011;8788;49.930;8.660;2023-03-19T13:20:41;8.00;;;3.22;;
17340;SDS011;8788;49.930;8.660;2023-03-19T13:23:28;4.03;;;2.95;;
17340;SDS011;8788;49.930;8.660;2023-03-19T13:25:58;2.88;;;2.67;;
17340;SDS011;8788;49.930;8.660;2023-03-19T13:28:29;5.53;;;2.40;;
17340;SDS011;8788;49.930;8.660;2023-03-19T13:30:59;3.38;;;2.30;;
17340;SDS011;8788;49.930;8.660;2023-03-19T13:33:30;4.22;;;2.22;;
17340;SDS011;8788;49.930;8.660;2023-03-19T13:36:00;4.40;;;2.10;;
17340;SDS011;8788;49.930;8.660;2023-03-19T13:38:36;6.78;;;2.30;;
17340;SDS011;8788;49.930;8.660;2023-03-19T13:41:23;2.00;;;1.60;;
17340;SDS011;8788;49.930;8.660;2023-03-19T13:44:41;2.45;;;1.52;;
17340;SDS011;8788;49.930;8.660;2023-03-19T13:55:44;3.72;;;1.77;;
17340;SDS011;8788;49.930;8.660;2023-03-19T13:58:20;4.93;;;1.48;;
17340;SDS011;8788;49.930;8.660;2023-03-19T14:01:09;2.72;;;1.70;;
17340;SDS011;8788;49.930;8.660;2023-03-19T14:03:58;2.83;;;2.20;;
17340;SDS011;8788;49.930;8.660;2023-03-19T14:06:30;2.25;;;1.70;;
17340;SDS011;8788;49.930;8.660;2023-03-19T14:09:04;2.20;;;1.90;;
17340;SDS011;8788;49.930;8.660;2023-03-19T14:11:52;2.45;;;1.60;;
17340;SDS011;8788;49.930;8.660;2023-03-19T14:14:20;1.33;;;1.23;;
17340;SDS011;8788;49.930;8.660;2023-03-19T14:16:51;3.33;;;2.05;;
17340;SDS011;8788;49.930;8.660;2023-03-19T14:19:19;3.78;;;2.83;;
17340;SDS011;8788;49.930;8.660;2023-03-19T14:22:00;3.95;;;3.15;;
17340;SDS011;8788;49.930;8.660;2023-03-19T14:24:35;2.38;;;2.17;;
17340;SDS011;8788;49.930;8.660;2023-03-19T14:27:11;3.40;;;1.75;;
17340;SDS011;8788;49.930;8.660;2023-03-19T14:29:41;1.77;;;1.60;;
17340;SDS011;8788;49.930;8.660;2023-03-19T14:32:14;1.48;;;1.38;;
17340;SDS011;8788;49.930;8.660;2023-03-19T14:34:43;2.15;;;1.33;;
17340;SDS011;8788;49.930;8.660;2023-03-19T14:37:15;7.65;;;4.07;;
17340;SDS011;8788;49.930;8.660;2023-03-19T14:39:48;5.82;;;1.85;;
17340;SDS011;8788;49.930;8.660;2023-03-19T14:42:20;2.67;;;1.90;;
17340;SDS011;8788;49.930;8.660;2023-03-19T14:48:04;3.78;;;1.48;;
17340;SDS011;8788;49.930;8.660;2023-03-19T14:51:00;1.20;;;1.10;;
17340;SDS011;8788;49.930;8.660;2023-03-19T14:53:36;2.35;;;1.15;;
17340;SDS011;8788;49.930;8.660;2023-03-19T14:56:10;1.60;;;1.30;;
17340;SDS011;8788;49.930;8.660;2023-03-19T14:58:49;1.63;;;1.33;;
17340;SDS011;8788;49.930;8.660;2023-03-19T15:01:18;2.30;;;1.10;;
17340;SDS011;8788;49.930;8.660;2023-03-19T15:03:52;2.03;;;0.90;;
17340;SDS011;8788;49.930;8.660;2023-03-19T15:06:21;0.60;;;0.60;;
17340;SDS011;8788;49.930;8.660;2023-03-19T15:08:49;0.63;;;0.50;;
17340;SDS011;8788;49.930;8.660;2023-03-19T15:11:21;2.67;;;0.82;;
17340;SDS011;8788;49.930;8.660;2023-03-19T15:14:05;0.80;;;0.80;;
17340;SDS011;8788;49.930;8.660;2023-03-19T15:16:51;1.05;;;0.25;;
17340;SDS011;8788;49.930;8.660;2023-03-19T15:19:29;0.43;;;0.40;;
17340;SDS011;8788;49.930;8.660;2023-03-19T15:22:04;0.70;;;0.60;;
17340;SDS011;8788;49.930;8.660;2023-03-19T15:24:37;0.80;;;0.63;;
17340;SDS011;8788;49.930;8.660;2023-03-19T15:27:14;1.85;;;0.73;;
17340;SDS011;8788;49.930;8.660;2023-03-19T15:29:42;0.55;;;0.40;;
17340;SDS011;8788;49.930;8.660;2023-03-19T15:32:10;0.75;;;0.75;;
17340;SDS011;8788;49.930;8.660;2023-03-19T15:34:38;2.05;;;1.08;;
17340;SDS011;8788;49.930;8.660;2023-03-19T15:37:07;1.55;;;0.75;;
17340;SDS011;8788;49.930;8.660;2023-03-19T15:39:36;0.40;;;0.40;;
17340;SDS011;8788;49.930;8.660;2023-03-19T15:42:08;0.80;;;0.80;;
17340;SDS011;8788;49.930;8.660;2023-03-19T15:44:37;0.60;;;0.60;;